createdAt,value
2018-02-05T00:00:11.049Z,15.80
2018-02-05T00:02:37.464Z,15.17
2018-02-05T00:05:03.856Z,16.30
2018-02-05T00:07:30.251Z,19.27
2018-02-05T00:09:56.606Z,19.03
2018-02-05T00:12:23.054Z,20.60
2018-02-05T00:14:49.461Z,22.20
2018-02-05T00:17:15.825Z,21.67
2018-02-05T00:19:42.225Z,20.40
2018-02-05T00:22:15.733Z,20.57
2018-02-05T00:24:42.112Z,21.90
2018-02-05T00:27:08.466Z,20.70
2018-02-05T00:29:34.896Z,19.50
2018-02-05T00:32:01.228Z,17.40
2018-02-05T00:34:27.604Z,16.20
2018-02-05T00:36:54.076Z,16.63
2018-02-05T00:39:20.435Z,16.20
2018-02-05T00:41:46.788Z,15.43
2018-02-05T00:44:13.212Z,16.17
2018-02-05T00:46:39.576Z,14.03
2018-02-05T00:49:05.916Z,14.80
2018-02-05T00:51:32.376Z,13.00
2018-02-05T00:53:58.732Z,13.40
2018-02-05T00:56:25.092Z,14.50
2018-02-05T00:58:51.495Z,14.17
2018-02-05T01:01:17.829Z,14.17
2018-02-05T01:03:44.221Z,13.77
2018-02-05T01:06:10.605Z,13.37
2018-02-05T01:08:36.971Z,15.50
2018-02-05T01:11:03.333Z,15.53
2018-02-05T01:13:29.686Z,15.77
2018-02-05T01:15:56.020Z,16.13
2018-02-05T01:18:22.436Z,17.97
2018-02-05T01:20:48.864Z,24.90
2018-02-05T01:23:15.232Z,34.47
2018-02-05T01:25:41.577Z,32.17
2018-02-05T01:28:07.963Z,31.83
2018-02-05T01:30:34.348Z,30.83
2018-02-05T01:33:00.758Z,29.43
2018-02-05T01:35:27.124Z,26.73
2018-02-05T01:37:53.485Z,26.50
2018-02-05T01:40:19.893Z,22.33
2018-02-05T01:42:46.240Z,21.73
2018-02-05T01:45:12.602Z,18.43
2018-02-05T01:47:38.984Z,19.20
2018-02-05T01:50:05.368Z,18.27
2018-02-05T01:52:31.698Z,19.40
2018-02-05T01:54:58.108Z,21.23
2018-02-05T01:57:24.438Z,24.77
2018-02-05T01:59:50.832Z,25.90
2018-02-05T02:02:17.207Z,26.47
2018-02-05T02:04:43.628Z,26.77
2018-02-05T02:07:10.013Z,27.20
2018-02-05T02:09:36.469Z,27.57
2018-02-05T02:12:02.916Z,27.50
2018-02-05T02:14:29.272Z,23.90
2018-02-05T02:16:55.657Z,23.13
2018-02-05T02:19:22.117Z,20.47
2018-02-05T02:21:48.521Z,19.93
2018-02-05T02:24:14.960Z,18.73
2018-02-05T02:26:41.409Z,19.90
2018-02-05T02:29:07.816Z,21.00
2018-02-05T02:31:34.182Z,21.30
2018-02-05T02:34:00.540Z,22.33
2018-02-05T02:36:26.944Z,20.57
2018-02-05T02:38:53.296Z,22.23
2018-02-05T02:41:19.689Z,22.40
2018-02-05T02:43:46.077Z,19.20
2018-02-05T02:46:12.492Z,17.87
2018-02-05T02:48:38.873Z,14.87
2018-02-05T02:51:05.261Z,12.27
2018-02-05T02:53:31.621Z,9.97
2018-02-05T02:55:58.021Z,9.30
2018-02-05T02:58:24.396Z,8.60
2018-02-05T03:00:50.728Z,8.50
2018-02-05T03:03:17.068Z,8.30
2018-02-05T03:05:43.448Z,7.70
2018-02-05T03:08:09.809Z,8.73
2018-02-05T03:10:36.160Z,9.07
2018-02-05T03:13:02.573Z,8.07
2018-02-05T03:15:28.949Z,7.80
2018-02-05T03:17:55.304Z,8.43
2018-02-05T03:20:21.697Z,7.87
2018-02-05T03:22:48.249Z,8.80
2018-02-05T03:25:14.607Z,8.27
2018-02-05T03:27:41.024Z,8.13
2018-02-05T03:30:07.401Z,8.13
2018-02-05T03:32:33.745Z,7.83
2018-02-05T03:35:00.140Z,7.47
2018-02-05T03:37:26.487Z,7.93
2018-02-05T03:39:52.900Z,6.97
2018-02-05T03:42:19.285Z,8.03
2018-02-05T03:44:45.664Z,8.77
2018-02-05T03:47:12.120Z,8.13
2018-02-05T03:49:38.505Z,8.67
2018-02-05T03:52:04.853Z,8.73
2018-02-05T03:54:31.272Z,8.97
2018-02-05T03:56:57.625Z,9.57
2018-02-05T03:59:24.034Z,9.30
2018-02-05T04:01:50.456Z,11.07
2018-02-05T04:04:16.809Z,10.50
2018-02-05T04:06:49.124Z,12.10
2018-02-05T04:09:15.652Z,11.07
2018-02-05T04:11:42.053Z,10.63
2018-02-05T04:14:08.496Z,10.80
2018-02-05T04:16:35.028Z,11.00
2018-02-05T04:19:01.482Z,11.73
2018-02-05T04:21:27.828Z,12.87
2018-02-05T04:23:54.197Z,12.87
2018-02-05T04:26:20.584Z,13.43
2018-02-05T04:28:47.128Z,12.27
2018-02-05T04:31:13.477Z,13.13
2018-02-05T04:33:39.882Z,13.30
2018-02-05T04:36:06.233Z,15.50
2018-02-05T04:38:32.596Z,15.53
2018-02-05T04:40:59.022Z,18.07
2018-02-05T04:43:25.388Z,17.23
2018-02-05T04:45:51.761Z,16.47
2018-02-05T04:48:18.149Z,19.37
2018-02-05T04:50:44.500Z,20.57
2018-02-05T04:53:10.889Z,19.30
2018-02-05T04:55:37.281Z,20.67
2018-02-05T04:58:03.620Z,22.23
2018-02-05T05:00:29.996Z,24.37
2018-02-05T05:02:56.384Z,26.23
2018-02-05T05:05:22.720Z,25.37
2018-02-05T05:07:49.096Z,24.93
2018-02-05T05:10:15.493Z,24.43
2018-02-05T05:12:41.844Z,17.80
2018-02-05T05:15:08.201Z,17.63
2018-02-05T05:17:34.589Z,18.80
2018-02-05T05:20:00.978Z,20.97
2018-02-05T05:22:27.319Z,21.03
2018-02-05T05:24:53.684Z,24.40
2018-02-05T05:27:20.025Z,25.73
2018-02-05T05:29:46.384Z,28.50
2018-02-05T05:32:12.769Z,29.87
2018-02-05T05:34:39.180Z,31.23
2018-02-05T05:37:05.520Z,43.87
2018-02-05T05:39:31.884Z,41.67
2018-02-05T05:41:58.273Z,47.10
2018-02-05T05:44:24.615Z,44.60
2018-02-05T05:46:51.013Z,49.30
2018-02-05T05:49:17.357Z,44.53
2018-02-05T05:51:43.725Z,37.03
2018-02-05T05:54:10.280Z,34.57
2018-02-05T05:56:36.646Z,33.60
2018-02-05T05:59:03.001Z,34.90
2018-02-05T06:01:29.367Z,34.50
2018-02-05T06:03:55.866Z,33.83
2018-02-05T06:06:22.221Z,32.60
2018-02-05T06:08:48.608Z,33.40
2018-02-05T06:11:15.084Z,24.80
2018-02-05T06:13:41.432Z,22.73
2018-02-05T06:16:07.805Z,24.13
2018-02-05T06:18:34.240Z,20.30
2018-02-05T06:21:00.631Z,19.87
2018-02-05T06:23:26.973Z,23.13
2018-02-05T06:25:53.332Z,22.57
2018-02-05T06:28:19.833Z,20.13
2018-02-05T06:30:46.222Z,19.43
2018-02-05T06:33:12.759Z,20.47
2018-02-05T06:35:39.149Z,21.07
2018-02-05T06:38:05.529Z,20.00
2018-02-05T06:40:32.094Z,21.80
2018-02-05T06:42:58.529Z,23.00
2018-02-05T06:45:24.886Z,19.90
2018-02-05T06:47:51.280Z,21.30
2018-02-05T06:50:29.801Z,20.33
2018-02-05T06:53:08.145Z,22.17
2018-02-05T06:55:46.553Z,20.97
2018-02-05T06:58:13.015Z,20.93
2018-02-05T07:00:39.405Z,19.53
2018-02-05T07:03:05.801Z,20.40
2018-02-05T07:05:32.141Z,20.80
2018-02-05T07:07:58.499Z,20.67
2018-02-05T07:10:24.841Z,21.20
2018-02-05T07:12:51.245Z,21.23
2018-02-05T07:15:17.644Z,22.93
2018-02-05T07:17:44.091Z,28.27
2018-02-05T07:20:10.589Z,20.67
2018-02-05T07:22:37.388Z,19.97
2018-02-05T07:25:04.526Z,15.80
2018-02-05T07:27:31.728Z,14.43
2018-02-05T07:29:58.089Z,14.90
2018-02-05T07:32:24.477Z,14.30
2018-02-05T07:34:50.897Z,15.80
2018-02-05T07:37:17.257Z,15.90
2018-02-05T07:39:43.616Z,14.77
2018-02-05T07:42:10.017Z,14.63
2018-02-05T07:44:36.398Z,14.83
2018-02-05T07:47:02.763Z,15.07
2018-02-05T07:49:29.188Z,15.80
2018-02-05T07:51:55.600Z,14.73
2018-02-05T07:54:21.961Z,15.07
2018-02-05T07:56:48.736Z,15.23
2018-02-05T07:59:15.146Z,16.83
2018-02-05T08:01:41.684Z,15.70
2018-02-05T08:04:08.173Z,15.87
2018-02-05T08:06:34.576Z,14.70
2018-02-05T08:09:01.041Z,14.77
2018-02-05T08:11:27.420Z,16.73
2018-02-05T08:13:53.794Z,15.23
2018-02-05T08:16:20.204Z,16.10
2018-02-05T08:18:46.672Z,16.23
2018-02-05T08:21:13.136Z,15.80
2018-02-05T08:23:39.613Z,15.63
2018-02-05T08:26:05.949Z,16.83
2018-02-05T08:28:32.371Z,17.17
2018-02-05T08:30:58.840Z,16.40
2018-02-05T08:33:25.240Z,14.20
2018-02-05T08:35:51.652Z,13.40
2018-02-05T08:38:18.872Z,13.03
2018-02-05T08:40:45.336Z,14.17
2018-02-05T08:43:11.814Z,13.40
2018-02-05T08:45:38.487Z,14.50
2018-02-05T08:48:04.864Z,14.33
2018-02-05T08:50:31.425Z,15.60
2018-02-05T08:52:58.518Z,14.00
2018-02-05T08:55:24.935Z,14.90
2018-02-05T08:57:51.557Z,15.83
2018-02-05T09:00:18.033Z,14.07
2018-02-05T09:02:44.413Z,14.13
2018-02-05T09:05:11.213Z,12.23
2018-02-05T09:07:37.823Z,14.70
2018-02-05T09:10:04.654Z,12.57
2018-02-05T09:12:31.900Z,14.03
2018-02-05T09:15:01.736Z,14.90
2018-02-05T09:17:29.145Z,14.00
2018-02-05T09:19:56.264Z,16.43
2018-02-05T09:22:22.638Z,15.07
2018-02-05T09:24:49.046Z,15.13
2018-02-05T09:27:15.505Z,14.93
2018-02-05T09:29:41.937Z,24.93
2018-02-05T09:32:08.371Z,16.20
2018-02-05T09:34:34.865Z,15.43
2018-02-05T09:37:02.281Z,14.03
2018-02-05T09:39:28.732Z,18.60
2018-02-05T09:41:55.285Z,99.63
2018-02-05T09:44:21.790Z,16.53
2018-02-05T09:46:49.583Z,218.67
2018-02-05T09:49:16.352Z,15.70
2018-02-05T09:51:42.837Z,19.47
2018-02-05T09:54:09.292Z,14.87
2018-02-05T09:56:35.833Z,18.37
2018-02-05T09:59:02.421Z,19.70
2018-02-05T10:01:28.780Z,24.50
2018-02-05T10:03:55.208Z,16.50
2018-02-05T10:06:21.587Z,17.13
2018-02-05T10:08:47.980Z,21.33
2018-02-05T10:11:14.512Z,17.00
2018-02-05T10:13:40.997Z,16.80
2018-02-05T10:16:07.401Z,15.57
2018-02-05T10:18:33.896Z,15.93
2018-02-05T10:21:00.265Z,17.93
2018-02-05T10:23:26.640Z,15.60
2018-02-05T10:25:53.182Z,18.20
2018-02-05T10:28:19.565Z,26.57
2018-02-05T10:30:45.976Z,14.60
2018-02-05T10:33:12.386Z,18.40
2018-02-05T10:35:38.865Z,16.10
2018-02-05T10:38:05.274Z,18.43
2018-02-05T10:40:31.687Z,16.03
2018-02-05T10:42:58.093Z,16.63
2018-02-05T10:45:24.544Z,15.13
2018-02-05T10:47:50.928Z,14.20
2018-02-05T10:50:17.308Z,13.80
2018-02-05T10:52:43.760Z,14.13
2018-02-05T10:55:10.100Z,15.17
2018-02-05T10:57:36.476Z,15.53
2018-02-05T11:00:03.022Z,13.17
2018-02-05T11:02:29.435Z,14.30
2018-02-05T11:04:55.817Z,21.40
2018-02-05T11:07:22.239Z,17.93
2018-02-05T11:09:48.592Z,14.00
2018-02-05T11:12:14.981Z,16.93
2018-02-05T11:14:41.503Z,12.70
2018-02-05T11:17:08.165Z,14.07
2018-02-05T11:19:34.533Z,16.77
2018-02-05T11:22:01.096Z,15.03
2018-02-05T11:24:27.890Z,15.50
2018-02-05T11:26:54.344Z,13.57
2018-02-05T11:29:20.953Z,13.53
2018-02-05T11:31:47.433Z,14.30
2018-02-05T11:34:13.885Z,14.93
2018-02-05T11:36:41.236Z,13.40
2018-02-05T11:39:07.692Z,14.87
2018-02-05T11:41:34.401Z,20.87
2018-02-05T11:44:00.860Z,20.70
2018-02-05T11:46:27.276Z,16.43
2018-02-05T11:48:53.715Z,16.97
2018-02-05T11:51:20.145Z,15.33
2018-02-05T11:53:46.623Z,15.03
2018-02-05T11:56:13.044Z,16.23
2018-02-05T11:58:39.628Z,17.13
2018-02-05T12:01:06.313Z,15.73
2018-02-05T12:03:32.801Z,15.73
2018-02-05T12:05:59.695Z,18.10
2018-02-05T12:08:26.247Z,17.70
2018-02-05T12:10:52.649Z,15.63
2018-02-05T12:13:19.152Z,17.83
2018-02-05T12:15:45.732Z,17.30
2018-02-05T12:18:12.140Z,16.87
2018-02-05T12:20:38.629Z,20.50
2018-02-05T12:23:05.054Z,17.93
2018-02-05T12:25:31.472Z,14.70
2018-02-05T12:27:57.888Z,16.00
2018-02-05T12:30:24.368Z,15.63
2018-02-05T12:32:50.744Z,14.37
2018-02-05T12:35:17.461Z,13.80
2018-02-05T12:37:44.785Z,15.20
2018-02-05T12:40:11.256Z,14.93
2018-02-05T12:42:37.749Z,15.83
2018-02-05T12:45:04.165Z,15.90
2018-02-05T12:47:30.539Z,20.37
2018-02-05T12:49:57.030Z,17.23
2018-02-05T12:52:23.380Z,16.97
2018-02-05T12:54:49.792Z,16.40
2018-02-05T12:57:16.257Z,15.53
2018-02-05T12:59:48.620Z,14.93
2018-02-05T13:02:15.217Z,14.97
2018-02-05T13:04:41.633Z,16.80
2018-02-05T13:07:08.059Z,15.17
2018-02-05T13:09:34.517Z,14.77
2018-02-05T13:12:00.860Z,15.70
2018-02-05T13:14:27.563Z,15.43
2018-02-05T13:16:54.073Z,15.53
2018-02-05T13:19:20.509Z,18.40
2018-02-05T13:21:46.904Z,14.60
2018-02-05T13:24:13.337Z,14.57
2018-02-05T13:26:39.701Z,14.57
2018-02-05T13:29:06.153Z,17.90
2018-02-05T13:31:32.662Z,14.37
2018-02-05T13:33:59.184Z,14.33
2018-02-05T13:36:25.693Z,14.23
2018-02-05T13:38:52.073Z,13.70
2018-02-05T13:41:18.456Z,14.37
2018-02-05T13:43:45.672Z,15.00
2018-02-05T13:46:12.382Z,13.50
2018-02-05T13:48:38.774Z,12.73
2018-02-05T13:51:05.475Z,14.03
2018-02-05T13:53:32.113Z,13.00
2018-02-05T13:55:59.580Z,14.03
2018-02-05T13:58:25.968Z,12.80
2018-02-05T14:00:53.979Z,14.63
2018-02-05T14:03:20.833Z,14.50
2018-02-05T14:05:47.472Z,15.23
2018-02-05T14:08:13.907Z,13.53
2018-02-05T14:10:40.920Z,13.30
2018-02-05T14:13:07.385Z,15.17
2018-02-05T14:15:33.796Z,12.40
2018-02-05T14:18:01.233Z,13.07
2018-02-05T14:20:27.701Z,13.93
2018-02-05T14:22:54.703Z,15.27
2018-02-05T14:25:21.284Z,13.77
2018-02-05T14:27:47.695Z,13.70
2018-02-05T14:30:14.189Z,14.23
2018-02-05T14:32:40.820Z,13.90
2018-02-05T14:35:07.208Z,14.80
2018-02-05T14:37:33.684Z,13.20
2018-02-05T14:40:00.330Z,13.70
2018-02-05T14:42:26.834Z,14.23
2018-02-05T14:44:53.316Z,14.20
2018-02-05T14:47:19.776Z,13.23
2018-02-05T14:49:46.146Z,14.03
2018-02-05T14:52:12.592Z,13.27
2018-02-05T14:54:39.026Z,15.37
2018-02-05T14:57:05.508Z,15.00
2018-02-05T14:59:31.917Z,15.17
2018-02-05T15:01:58.376Z,14.77
2018-02-05T15:04:24.786Z,18.93
2018-02-05T15:06:51.166Z,19.33
2018-02-05T15:09:17.637Z,19.20
2018-02-05T15:11:44.020Z,20.47
2018-02-05T15:14:10.450Z,21.20
2018-02-05T15:16:36.965Z,22.70
2018-02-05T15:19:03.752Z,24.47
2018-02-05T15:21:30.489Z,26.63
2018-02-05T15:23:56.932Z,27.90
2018-02-05T15:26:23.436Z,32.83
2018-02-05T15:28:50.132Z,32.17
2018-02-05T15:31:17.648Z,35.33
2018-02-05T15:33:44.612Z,36.00
2018-02-05T15:36:11.132Z,41.20
2018-02-05T15:38:37.616Z,42.97
2018-02-05T15:41:04.033Z,41.40
2018-02-05T15:43:30.485Z,44.47
2018-02-05T15:45:56.916Z,49.60
2018-02-05T15:48:23.348Z,46.97
2018-02-05T15:50:49.776Z,57.77
2018-02-05T15:53:16.217Z,64.17
2018-02-05T15:55:42.633Z,83.60
2018-02-05T15:58:09.422Z,86.17
2018-02-05T16:00:35.952Z,86.23
2018-02-05T16:03:02.361Z,87.50
2018-02-05T16:05:28.757Z,94.07
2018-02-05T16:07:55.200Z,97.83
2018-02-05T16:10:21.613Z,97.30
2018-02-05T16:12:48.017Z,107.33
2018-02-05T16:15:14.514Z,145.73
2018-02-05T16:17:40.911Z,155.47
2018-02-05T16:20:07.500Z,150.43
2018-02-05T16:22:33.929Z,143.50
2018-02-05T16:25:00.336Z,155.70
2018-02-05T16:27:26.720Z,177.60
2018-02-05T16:29:53.129Z,190.33
2018-02-05T16:32:19.542Z,182.23
2018-02-05T16:34:45.946Z,186.00
2018-02-05T16:37:12.334Z,191.20
2018-02-05T16:39:38.744Z,184.03
2018-02-05T16:42:05.124Z,173.43
2018-02-05T16:44:31.537Z,179.73
2018-02-05T16:46:57.955Z,184.53
2018-02-05T16:49:25.283Z,169.50
2018-02-05T16:51:51.678Z,191.93
2018-02-05T16:54:18.132Z,184.73
2018-02-05T16:56:44.547Z,193.80
2018-02-05T16:59:10.969Z,184.43
2018-02-05T17:01:37.422Z,184.23
2018-02-05T17:04:03.809Z,153.77
2018-02-05T17:06:30.164Z,145.83
2018-02-05T17:08:56.576Z,142.17
2018-02-05T17:11:23.190Z,141.53
2018-02-05T17:13:49.631Z,140.80
2018-02-05T17:16:16.087Z,148.07
2018-02-05T17:18:42.483Z,153.17
2018-02-05T17:21:08.841Z,158.70
2018-02-05T17:23:35.241Z,169.90
2018-02-05T17:26:02.426Z,184.83
2018-02-05T17:28:28.853Z,178.33
2018-02-05T17:30:55.208Z,176.47
2018-02-05T17:33:21.577Z,182.73
2018-02-05T17:35:48.081Z,176.57
2018-02-05T17:38:14.495Z,162.70
2018-02-05T17:40:40.949Z,157.57
2018-02-05T17:43:07.339Z,146.37
2018-02-05T17:45:33.731Z,137.47
2018-02-05T17:48:00.104Z,133.90
2018-02-05T17:50:27.193Z,116.30
2018-02-05T17:52:54.235Z,105.13
2018-02-05T17:55:20.653Z,103.03
2018-02-05T17:57:47.017Z,113.10
2018-02-05T18:00:14.322Z,131.13
2018-02-05T18:02:40.779Z,132.20
2018-02-05T18:05:08.141Z,127.33
2018-02-05T18:07:34.510Z,122.23
2018-02-05T18:10:00.867Z,120.80
2018-02-05T18:12:27.281Z,120.10
2018-02-05T18:14:53.671Z,112.33
2018-02-05T18:17:20.882Z,108.83
2018-02-05T18:19:47.301Z,108.87
2018-02-05T18:22:13.672Z,103.60
2018-02-05T18:24:40.024Z,97.83
2018-02-05T18:27:07.067Z,97.23
2018-02-05T18:29:33.442Z,91.87
2018-02-05T18:31:59.838Z,88.40
2018-02-05T18:34:26.242Z,88.47
2018-02-05T18:36:52.619Z,110.83
2018-02-05T18:39:19.013Z,125.83
2018-02-05T18:41:45.937Z,134.27
2018-02-05T18:44:12.294Z,126.63
2018-02-05T18:46:38.742Z,115.53
2018-02-05T18:49:05.162Z,112.20
2018-02-05T18:51:31.521Z,105.73
2018-02-05T18:53:57.962Z,102.13
2018-02-05T18:56:36.632Z,97.03
2018-02-05T18:59:02.992Z,89.13
2018-02-05T19:01:30.428Z,90.03
2018-02-05T19:03:56.792Z,90.67
2018-02-05T19:06:23.153Z,92.83
2018-02-05T19:08:49.522Z,96.17
2018-02-05T19:11:16.038Z,100.90
2018-02-05T19:13:42.470Z,119.20
2018-02-05T19:16:08.889Z,117.57
2018-02-05T19:18:35.358Z,123.53
2018-02-05T19:21:01.765Z,128.97
2018-02-05T19:23:29.021Z,140.00
2018-02-05T19:25:55.477Z,136.60
2018-02-05T19:28:21.912Z,138.33
2018-02-05T19:30:48.354Z,135.63
2018-02-05T19:33:14.943Z,135.97
2018-02-05T19:35:42.360Z,137.03
2018-02-05T19:38:08.725Z,137.87
2018-02-05T19:40:35.077Z,140.67
2018-02-05T19:43:01.454Z,141.97
2018-02-05T19:45:27.910Z,140.67
2018-02-05T19:47:54.284Z,144.60
2018-02-05T19:50:20.671Z,142.17
2018-02-05T19:52:47.089Z,145.30
2018-02-05T19:55:13.478Z,161.23
2018-02-05T19:57:39.828Z,164.67
2018-02-05T20:00:07.246Z,159.97
2018-02-05T20:02:34.414Z,153.57
2018-02-05T20:05:01.681Z,147.77
2018-02-05T20:07:28.870Z,148.73
2018-02-05T20:09:55.274Z,143.43
2018-02-05T20:12:22.041Z,138.83
2018-02-05T20:14:48.444Z,125.77
2018-02-05T20:17:21.817Z,117.77
2018-02-05T20:19:48.236Z,111.77
2018-02-05T20:22:15.334Z,115.20
2018-02-05T20:24:41.701Z,115.83
2018-02-05T20:27:09.071Z,117.50
2018-02-05T20:29:35.529Z,118.20
2018-02-05T20:32:02.858Z,118.43
2018-02-05T20:34:29.357Z,118.87
2018-02-05T20:36:55.783Z,115.50
2018-02-05T20:39:23.096Z,118.80
2018-02-05T20:41:49.494Z,110.07
2018-02-05T20:44:15.902Z,104.57
2018-02-05T20:46:42.276Z,94.50
2018-02-05T20:49:08.654Z,93.33
2018-02-05T20:51:35.084Z,91.43
2018-02-05T20:54:01.491Z,87.80
2018-02-05T20:56:28.926Z,77.07
2018-02-05T20:58:55.380Z,72.17
2018-02-05T21:01:21.737Z,73.50
2018-02-05T21:03:48.145Z,85.10
2018-02-05T21:06:14.941Z,59.40
2018-02-05T21:08:43.130Z,51.80
2018-02-05T21:11:11.466Z,46.07
2018-02-05T21:13:39.640Z,49.80
2018-02-05T21:16:06.409Z,49.47
2018-02-05T21:18:32.836Z,57.60
2018-02-05T21:20:59.226Z,57.20
2018-02-05T21:23:25.608Z,54.73
2018-02-05T21:25:51.986Z,51.70
2018-02-05T21:28:18.386Z,45.93
2018-02-05T21:30:44.833Z,40.33
2018-02-05T21:33:11.230Z,38.43
2018-02-05T21:35:37.622Z,61.67
2018-02-05T21:38:03.994Z,45.50
2018-02-05T21:40:30.400Z,41.87
2018-02-05T21:42:56.782Z,44.20
2018-02-05T21:45:23.128Z,47.93
2018-02-05T21:47:49.556Z,69.20
2018-02-05T21:50:16.057Z,86.53
2018-02-05T21:52:42.557Z,78.40
2018-02-05T21:55:09.088Z,61.50
2018-02-05T21:57:35.460Z,54.17
2018-02-05T22:00:01.837Z,53.50
2018-02-05T22:02:28.297Z,46.20
2018-02-05T22:04:54.672Z,39.60
2018-02-05T22:07:21.034Z,37.53
2018-02-05T22:09:47.417Z,38.90
2018-02-05T22:12:13.811Z,37.27
2018-02-05T22:14:40.280Z,37.13
2018-02-05T22:17:06.682Z,37.47
2018-02-05T22:19:33.124Z,38.33
2018-02-05T22:21:59.480Z,36.00
2018-02-05T22:24:25.888Z,32.37
2018-02-05T22:26:52.292Z,33.77
2018-02-05T22:29:18.638Z,31.17
2018-02-05T22:31:52.752Z,33.57
2018-02-05T22:34:19.126Z,30.77
2018-02-05T22:36:45.497Z,32.40
2018-02-05T22:39:11.913Z,30.60
2018-02-05T22:41:38.299Z,27.70
2018-02-05T22:44:04.661Z,28.60
2018-02-05T22:46:31.081Z,26.27
2018-02-05T22:48:57.438Z,28.17
2018-02-05T22:51:23.800Z,28.07
2018-02-05T22:53:51.209Z,25.77
2018-02-05T22:56:17.576Z,26.63
2018-02-05T22:58:43.968Z,26.63
2018-02-05T23:01:10.341Z,26.50
2018-02-05T23:03:36.853Z,27.50
2018-02-05T23:06:03.269Z,26.67
2018-02-05T23:08:29.633Z,29.20
2018-02-05T23:10:56.425Z,28.20
2018-02-05T23:13:23.021Z,30.80
2018-02-05T23:15:49.417Z,34.93
2018-02-05T23:18:15.911Z,34.03
2018-02-05T23:20:42.314Z,30.33
2018-02-05T23:23:08.733Z,26.80
2018-02-05T23:25:35.129Z,27.40
2018-02-05T23:28:01.561Z,25.60
2018-02-05T23:30:27.929Z,25.37
2018-02-05T23:32:54.281Z,25.03
2018-02-05T23:35:20.690Z,26.33
2018-02-05T23:37:47.051Z,24.03
2018-02-05T23:40:13.408Z,23.20
2018-02-05T23:42:39.804Z,24.90
2018-02-05T23:45:06.147Z,23.93
2018-02-05T23:47:32.521Z,24.50
2018-02-05T23:49:58.893Z,24.57
2018-02-05T23:52:25.260Z,25.43
2018-02-05T23:54:51.637Z,25.67
2018-02-05T23:57:18.001Z,26.73
2018-02-05T23:59:44.340Z,27.40
